Time;durP1;ratioP1;P1;durP2;ratioP2;P2;SDS_P1;SDS_P2;PMS_P1;PMS_P2;Temp;Humidity;BMP_temperature;BMP_pressure;BME280_temperature;BME280_humidity;BME280_pressure;Samples;Min_cycle;Max_cycle;Signal;HPM_P1;HPM_P2
2021/09/04 00:04:59;;;;;;;9.10;6.37;;;;;;;10.00;100.00;100626.34;21044435;28;20702;-66
2021/09/04 00:15:05;;;;;;;6.63;5.87;;;;;;;9.82;100.00;100643.34;21080529;28;20404;-67
2021/09/04 00:25:09;;;;;;;7.37;6.00;;;;;;;9.49;100.00;100646.94;21118419;27;20237;-68
2021/09/04 00:35:13;;;;;;;8.97;7.23;;;;;;;9.47;100.00;100648.81;21141610;27;20222;-67
2021/09/04 00:45:15;;;;;;;8.97;7.27;;;;;;;9.51;100.00;100642.41;21118278;27;20735;-68
2021/09/04 00:55:19;;;;;;;11.33;7.77;;;;;;;9.52;100.00;100646.78;21148555;27;20233;-68
2021/09/04 01:05:22;;;;;;;11.17;7.80;;;;;;;9.47;100.00;100647.97;21138441;27;20225;-68
2021/09/04 01:15:28;;;;;;;12.00;8.13;;;;;;;9.46;100.00;100663.09;21150933;27;20540;-68
2021/09/04 01:25:32;;;;;;;11.50;7.17;;;;;;;9.39;100.00;100661.72;21145111;27;20649;-67
2021/09/04 01:35:36;;;;;;;9.43;6.67;;;;;;;9.28;100.00;100669.41;21141263;27;20229;-66
2021/09/04 01:45:38;;;;;;;10.07;7.00;;;;;;;9.23;100.00;100671.44;21151912;27;20282;-67
2021/09/04 01:55:42;;;;;;;11.47;7.73;;;;;;;8.99;100.00;100665.63;21131026;27;20300;-67
2021/09/04 02:05:45;;;;;;;9.27;7.10;;;;;;;8.81;100.00;100670.09;21151714;27;20757;-67
2021/09/04 02:15:49;;;;;;;10.67;6.90;;;;;;;8.63;100.00;100671.03;21127851;27;20214;-68
2021/09/04 02:25:52;;;;;;;8.60;6.23;;;;;;;8.58;100.00;100673.03;21150266;27;20286;-68
2021/09/04 02:35:57;;;;;;;8.63;5.63;;;;;;;8.44;100.00;100688.84;21130478;27;20274;-68
2021/09/04 02:46:00;;;;;;;12.07;7.33;;;;;;;8.31;100.00;100691.22;21144533;27;20736;-68
2021/09/04 02:56:04;;;;;;;9.43;6.10;;;;;;;8.20;100.00;100699.72;21136181;27;20228;-69
2021/09/04 03:06:08;;;;;;;11.60;6.70;;;;;;;8.02;100.00;100711.22;21135433;27;20243;-70
2021/09/04 03:16:12;;;;;;;10.53;6.00;;;;;;;7.75;100.00;100696.56;21143412;27;20242;-70
2021/09/04 03:36:11;;;;;;;7.03;4.23;;;;;;;7.24;100.00;100713.97;20963803;28;20562;-69
2021/09/04 03:46:14;;;;;;;5.20;3.30;;;;;;;6.80;100.00;100716.72;20941105;28;20228;-68
2021/09/04 03:56:20;;;;;;;3.93;2.60;;;;;;;6.52;100.00;100716.16;20924022;28;20221;-69
2021/09/04 04:06:22;;;;;;;5.07;3.30;;;;;;;6.63;100.00;100735.16;20860594;28;20222;-71
2021/09/04 04:16:27;;;;;;;8.30;2.00;;;;;;;7.01;100.00;100744.13;20872334;28;20228;-70
2021/09/04 04:26:30;;;;;;;3.30;2.20;;;;;;;7.89;100.00;100715.38;20895778;28;20797;-71
2021/09/04 04:36:34;;;;;;;4.20;2.90;;;;;;;8.21;100.00;100777.69;20878711;28;20739;-71
2021/09/04 04:46:36;;;;;;;5.90;4.07;;;;;;;8.31;100.00;100763.00;20827798;28;20263;-71
2021/09/04 04:56:41;;;;;;;8.03;4.47;;;;;;;8.47;100.00;100781.75;20840620;28;20231;-70
2021/09/04 05:06:44;;;;;;;6.63;4.90;;;;;;;8.70;100.00;100784.16;20817947;28;20332;-71
2021/09/04 05:16:48;;;;;;;5.63;4.57;;;;;;;9.00;100.00;100809.28;20795647;28;20711;-70
2021/09/04 05:26:50;;;;;;;5.30;4.10;;;;;;;9.35;100.00;100812.81;20832262;28;21114;-70
2021/09/04 05:36:54;;;;;;;3.77;3.37;;;;;;;9.58;100.00;100814.28;20848150;28;20728;-72
2021/09/04 05:46:57;;;;;;;3.10;2.80;;;;;;;9.85;100.00;100814.63;20813148;28;20318;-69
2021/09/04 05:57:02;;;;;;;3.27;2.97;;;;;;;10.03;100.00;100818.09;20798861;28;20266;-70
2021/09/04 06:07:05;;;;;;;2.53;2.33;;;;;;;10.43;100.00;100823.03;20880147;28;20289;-68
2021/09/04 06:17:09;;;;;;;2.97;2.13;;;;;;;10.82;100.00;100835.06;20870334;28;20226;-69
2021/09/04 06:27:12;;;;;;;2.70;2.00;;;;;;;11.65;100.00;100836.41;20892927;28;20942;-69
2021/09/04 06:37:16;;;;;;;1.77;1.67;;;;;;;12.57;100.00;100837.78;20816912;28;20245;-69
2021/09/04 06:47:18;;;;;;;0.80;0.80;;;;;;;12.85;100.00;100839.53;20804151;28;20585;-70
2021/09/04 06:57:22;;;;;;;1.37;1.27;;;;;;;12.28;100.00;100863.72;20808150;28;20267;-70
2021/09/04 07:07:25;;;;;;;2.30;1.53;;;;;;;12.02;100.00;100883.19;20835945;28;20594;-68
2021/09/04 07:17:29;;;;;;;2.23;1.20;;;;;;;12.23;100.00;100879.19;20846062;28;20296;-68
2021/09/04 07:27:31;;;;;;;2.63;1.27;;;;;;;12.87;100.00;100867.09;20874765;28;20228;-69
2021/09/04 07:37:35;;;;;;;1.20;1.10;;;;;;;13.32;100.00;100880.16;20787023;28;20661;-67
2021/09/04 07:47:39;;;;;;;1.83;1.30;;;;;;;15.64;100.00;100885.03;20836414;28;20223;-70
2021/09/04 07:57:43;;;;;;;1.37;0.90;;;;;;;17.81;100.00;100896.19;20832633;28;20427;-70
2021/09/04 08:07:45;;;;;;;1.30;0.90;;;;;;;16.80;85.23;100904.53;20828080;28;20645;-66
2021/09/04 08:17:49;;;;;;;1.10;0.90;;;;;;;16.41;92.04;100907.72;20831249;28;20613;-67
2021/09/04 08:27:52;;;;;;;1.07;0.97;;;;;;;17.26;78.19;100904.38;20833658;28;20707;-67
2021/09/04 08:37:59;;;;;;;2.00;0.97;;;;;;;17.81;72.14;100913.25;20795524;28;20233;-67
2021/09/04 08:48:02;;;;;;;1.57;1.03;;;;;;;17.42;75.82;100912.00;20829579;28;21059;-67
2021/09/04 08:58:08;;;;;;;1.87;0.97;;;;;;;17.12;74.89;100896.53;20849053;28;20228;-67
2021/09/04 09:08:16;;;;;;;0.97;0.97;;;;;;;16.73;71.97;100906.03;20830183;28;20222;-66
2021/09/04 09:18:19;;;;;;;1.00;0.77;;;;;;;16.81;73.25;100906.25;20850114;28;20671;-67
2021/09/04 09:28:24;;;;;;;0.60;0.60;;;;;;;16.89;67.06;100911.06;20831303;28;20252;-66
2021/09/04 09:38:29;;;;;;;1.33;0.83;;;;;;;16.83;63.93;100917.78;20844376;28;20227;-67
2021/09/04 09:48:33;;;;;;;0.60;0.60;;;;;;;17.02;66.02;100903.69;20839404;28;20369;-67
2021/09/04 09:58:39;;;;;;;0.50;0.50;;;;;;;17.36;61.03;100909.84;20837596;28;20314;-67
2021/09/04 10:08:41;;;;;;;0.80;0.70;;;;;;;17.42;61.96;100906.63;20844433;28;20252;-66
2021/09/04 10:18:45;;;;;;;1.10;0.70;;;;;;;17.49;61.64;100902.44;20826516;28;20233;-66
2021/09/04 10:29:00;;;;;;;1.70;0.80;;;;;;;17.60;61.56;100913.19;20845340;28;20542;-65
2021/09/04 10:39:05;;;;;;;1.67;0.87;;;;;;;17.91;58.53;100929.50;20822886;28;20236;-67
2021/09/04 10:49:07;;;;;;;1.07;0.70;;;;;;;18.16;59.00;100929.13;20845831;28;20232;-66
2021/09/04 10:59:12;;;;;;;0.60;0.60;;;;;;;18.74;62.16;100924.03;20826321;28;20727;-66
2021/09/04 11:09:14;;;;;;;0.70;0.70;;;;;;;18.93;59.20;100925.97;20840181;28;20253;-66
2021/09/04 11:19:22;;;;;;;1.73;0.90;;;;;;;18.65;55.93;100916.75;20831032;28;20622;-66
2021/09/04 11:29:25;;;;;;;0.87;0.87;;;;;;;18.52;57.18;100918.78;20833772;28;20258;-66
2021/09/04 11:39:39;;;;;;;1.27;0.70;;;;;;;18.26;52.50;100927.31;20838269;28;20233;-66
2021/09/04 11:49:46;;;;;;;0.80;0.80;;;;;;;19.06;55.53;100926.59;20830859;28;20333;-66
2021/09/04 12:00:02;;;;;;;0.90;0.90;;;;;;;18.56;53.82;100936.47;20847793;28;20256;-66
2021/09/04 12:10:16;;;;;;;0.80;0.70;;;;;;;18.36;55.36;100914.72;20837693;28;20701;-67
2021/09/04 12:20:27;;;;;;;0.60;0.60;;;;;;;18.94;53.15;100906.91;20874540;28;20230;-65
2021/09/04 12:30:30;;;;;;;3.50;1.73;;;;;;;19.27;51.93;100907.53;20849350;28;20393;-66
2021/09/04 12:40:34;;;;;;;2.63;1.17;;;;;;;18.31;52.67;100925.09;20883897;28;20316;-65
2021/09/04 12:50:37;;;;;;;1.53;1.00;;;;;;;18.34;54.11;100926.69;20851338;28;20236;-66
2021/09/04 13:00:42;;;;;;;1.17;1.00;;;;;;;18.70;54.19;100890.19;20862963;28;20229;-67
2021/09/04 13:10:45;;;;;;;1.00;0.90;;;;;;;18.80;54.66;100917.25;20882558;28;20247;-66
2021/09/04 13:20:49;;;;;;;3.63;1.20;;;;;;;18.70;54.84;100903.69;20868756;28;20664;-66
2021/09/04 13:30:52;;;;;;;1.23;1.13;;;;;;;18.49;54.35;100919.06;20876851;28;20237;-66
2021/09/04 13:40:56;;;;;;;0.90;0.90;;;;;;;18.38;53.21;100916.44;20859512;28;20218;-66
2021/09/04 13:50:58;;;;;;;1.37;1.27;;;;;;;18.57;55.54;100916.56;20891391;28;20225;-67
2021/09/04 14:01:03;;;;;;;1.33;1.10;;;;;;;18.89;54.67;100919.97;20875690;28;20227;-67
2021/09/04 14:11:06;;;;;;;2.53;1.30;;;;;;;18.70;53.37;100928.88;20894283;28;20273;-67
2021/09/04 14:21:11;;;;;;;2.10;1.20;;;;;;;19.08;53.47;100925.44;20881516;28;20313;-67
2021/09/04 14:31:13;;;;;;;2.27;1.27;;;;;;;19.03;52.21;100924.16;20891206;28;20231;-66
2021/09/04 14:41:17;;;;;;;0.80;0.80;;;;;;;18.92;54.83;100922.41;20886789;28;20234;-66
2021/09/04 14:51:20;;;;;;;1.40;1.17;;;;;;;18.78;55.12;100930.91;20882169;28;20322;-66
2021/09/04 15:01:24;;;;;;;1.10;1.00;;;;;;;18.01;57.87;100925.03;20892005;28;20219;-66
2021/09/04 15:11:27;;;;;;;2.40;2.20;;;;;;;17.68;59.84;100923.34;20873974;28;20229;-67
2021/09/04 15:21:30;;;;;;;1.17;1.07;;;;;;;17.90;58.13;100927.78;20894101;28;20782;-66
2021/09/04 15:31:33;;;;;;;0.80;0.80;;;;;;;17.85;59.76;100927.34;20871585;28;20347;-67
2021/09/04 15:41:38;;;;;;;1.30;0.80;;;;;;;17.27;60.03;100916.84;20915659;28;20221;-67
2021/09/04 15:51:41;;;;;;;1.47;1.37;;;;;;;17.00;62.25;100926.34;20875294;28;20681;-67
2021/09/04 16:01:50;;;;;;;1.20;1.00;;;;;;;16.80;63.08;100936.91;20900371;28;20228;-68
2021/09/04 16:11:54;;;;;;;2.00;0.97;;;;;;;16.42;63.80;100895.97;20906535;28;20632;-69
2021/09/04 16:22:02;;;;;;;3.17;1.10;;;;;;;16.03;69.23;100924.19;20856893;28;20952;-68
2021/09/04 16:32:05;;;;;;;1.10;1.00;;;;;;;15.74;73.78;100921.91;20863298;28;20692;-64
2021/09/04 16:42:10;;;;;;;2.90;2.10;;;;;;;15.76;76.97;100921.78;20883997;28;20281;-69
2021/09/04 16:52:13;;;;;;;4.90;4.33;;;;;;;15.80;82.72;100913.38;20880228;28;20585;-68
2021/09/04 17:02:17;;;;;;;2.23;1.97;;;;;;;15.55;82.40;100926.09;20842031;28;20242;-67
2021/09/04 17:12:19;;;;;;;1.70;1.60;;;;;;;15.09;85.62;100926.81;20905249;28;20219;-69
2021/09/04 17:22:27;;;;;;;1.63;1.13;;;;;;;14.37;91.51;100933.75;20880680;28;20235;-75
2021/09/04 17:32:32;;;;;;;1.70;1.60;;;;;;;13.88;96.64;100942.53;20900442;28;20263;-70
2021/09/04 17:42:36;;;;;;;2.13;1.93;;;;;;;13.68;97.35;100951.06;20888735;28;20250;-67
2021/09/04 17:52:39;;;;;;;1.60;1.50;;;;;;;13.61;100.00;100968.53;20892713;28;20379;-67
2021/09/04 18:02:43;;;;;;;3.80;1.57;;;;;;;13.44;100.00;100979.50;20893595;28;20258;-68
2021/09/04 18:12:49;;;;;;;2.80;1.67;;;;;;;13.33;100.00;100990.94;20880935;28;20250;-66
2021/09/04 18:22:56;;;;;;;2.67;1.47;;;;;;;13.19;100.00;101002.53;20873466;28;20242;-68
2021/09/04 18:32:59;;;;;;;1.97;1.73;;;;;;;12.97;100.00;101010.19;20846884;28;20405;-68
2021/09/04 18:43:03;;;;;;;2.00;1.80;;;;;;;12.78;100.00;100996.25;20867828;28;20728;-69
2021/09/04 18:53:06;;;;;;;2.43;2.23;;;;;;;12.52;100.00;101022.81;20828881;28;20647;-68
2021/09/04 19:03:12;;;;;;;4.03;3.20;;;;;;;12.20;100.00;101026.56;20840581;28;20712;-67
2021/09/04 19:13:16;;;;;;;2.73;2.53;;;;;;;12.00;100.00;101035.78;20827810;28;20222;-67
2021/09/04 19:23:28;;;;;;;1.80;1.70;;;;;;;11.56;100.00;101035.66;20837474;28;20230;-69
2021/09/04 19:33:34;;;;;;;3.33;2.23;;;;;;;11.26;100.00;101064.06;20824629;28;20262;-67
2021/09/04 19:43:38;;;;;;;4.30;2.90;;;;;;;11.34;100.00;101068.06;20837044;28;20224;-69
2021/09/04 19:53:44;;;;;;;3.23;2.53;;;;;;;11.52;100.00;101074.19;20832058;28;20224;-68
2021/09/04 20:03:49;;;;;;;3.87;3.47;;;;;;;11.79;100.00;101083.34;20818823;28;20303;-69
2021/09/04 20:14:43;;;;;;;5.80;3.80;;;;;;;11.80;100.00;101101.13;20840456;28;20262;-72
2021/09/04 20:24:48;;;;;;;5.80;3.60;;;;;;;11.66;100.00;101101.00;20842877;28;20231;-68
2021/09/04 20:34:50;;;;;;;4.47;3.67;;;;;;;11.76;100.00;101109.41;20855186;28;20306;-71
2021/09/04 20:44:55;;;;;;;4.33;3.30;;;;;;;11.87;100.00;101115.84;20847720;28;20227;-70
2021/09/04 20:54:58;;;;;;;5.83;3.40;;;;;;;11.77;100.00;101125.34;20848063;28;20267;-74
2021/09/04 21:05:02;;;;;;;3.30;3.00;;;;;;;11.67;100.00;101128.59;20841711;28;20225;-73
2021/09/04 21:15:06;;;;;;;4.20;3.47;;;;;;;11.45;100.00;101123.59;20843709;28;20257;-72
2021/09/04 21:45:03;;;;;;;3.67;3.37;;;;;;;9.97;100.00;101135.75;20916959;27;20672;-71
2021/09/04 21:55:06;;;;;;;3.50;3.20;;;;;;;9.78;100.00;101153.56;20818169;28;20330;-70
2021/09/04 22:05:11;;;;;;;4.07;3.17;;;;;;;9.87;100.00;101151.31;20747749;28;20216;-69
2021/09/04 22:15:14;;;;;;;4.70;3.90;;;;;;;9.91;100.00;101158.22;20721893;28;20231;-69
2021/09/04 22:25:18;;;;;;;4.23;3.57;;;;;;;9.72;100.00;101176.03;20757720;28;20240;-69
2021/09/04 22:35:34;;;;;;;3.80;3.30;;;;;;;9.60;100.00;101182.81;20728012;28;20249;-70
2021/09/04 22:45:39;;;;;;;3.77;3.47;;;;;;;9.61;100.00;101179.19;20728644;28;20228;-70
2021/09/04 22:55:42;;;;;;;4.13;3.73;;;;;;;9.31;100.00;101180.59;20680806;28;20236;-70
2021/09/04 23:15:42;;;;;;;4.10;3.70;;;;;;;8.89;100.00;101200.22;20911516;27;20560;-70
2021/09/04 23:25:48;;;;;;;4.47;3.87;;;;;;;8.61;100.00;101204.97;20888277;28;20235;-69
2021/09/04 23:45:49;;;;;;;4.23;3.80;;;;;;;8.19;100.00;101229.72;20893986;27;20664;-70
2021/09/04 23:55:51;;;;;;;4.10;3.70;;;;;;;8.12;100.00;101238.84;20903777;28;20230;-70
